sensor_id;sensor_type;location;lat;lon;timestamp;temperature;humidity
20594;DHT22;10455;48.732;10.266;2023-07-29T00:03:23;15.90;99.90
20594;DHT22;10455;48.732;10.266;2023-07-29T00:08:25;16.10;99.90
20594;DHT22;10455;48.732;10.266;2023-07-29T00:13:28;16.30;99.90
20594;DHT22;10455;48.732;10.266;2023-07-29T00:18:30;16.20;99.90
20594;DHT22;10455;48.732;10.266;2023-07-29T00:23:32;16.30;99.90
20594;DHT22;10455;48.732;10.266;2023-07-29T00:28:35;16.40;99.90
20594;DHT22;10455;48.732;10.266;2023-07-29T00:33:37;16.40;99.90
20594;DHT22;10455;48.732;10.266;2023-07-29T00:38:39;16.40;99.90
20594;DHT22;10455;48.732;10.266;2023-07-29T00:43:42;16.20;99.90
20594;DHT22;10455;48.732;10.266;2023-07-29T00:48:44;16.20;99.90
20594;DHT22;10455;48.732;10.266;2023-07-29T00:53:46;16.10;99.90
20594;DHT22;10455;48.732;10.266;2023-07-29T00:58:50;15.90;99.90
20594;DHT22;10455;48.732;10.266;2023-07-29T01:03:59;15.90;99.90
20594;DHT22;10455;48.732;10.266;2023-07-29T01:09:03;16.00;99.90
20594;DHT22;10455;48.732;10.266;2023-07-29T01:14:14;16.00;99.90
20594;DHT22;10455;48.732;10.266;2023-07-29T01:19:34;16.20;99.90
20594;DHT22;10455;48.732;10.266;2023-07-29T01:24:45;16.20;99.90
20594;DHT22;10455;48.732;10.266;2023-07-29T01:29:47;16.30;99.90
20594;DHT22;10455;48.732;10.266;2023-07-29T01:34:56;16.40;99.90
20594;DHT22;10455;48.732;10.266;2023-07-29T01:40:02;16.40;99.90
20594;DHT22;10455;48.732;10.266;2023-07-29T01:45:05;16.50;99.90
20594;DHT22;10455;48.732;10.266;2023-07-29T01:50:08;16.60;99.90
20594;DHT22;10455;48.732;10.266;2023-07-29T01:55:11;16.60;99.90
20594;DHT22;10455;48.732;10.266;2023-07-29T02:00:13;16.50;99.90
20594;DHT22;10455;48.732;10.266;2023-07-29T02:05:15;16.50;99.90
20594;DHT22;10455;48.732;10.266;2023-07-29T02:10:19;16.40;99.90
20594;DHT22;10455;48.732;10.266;2023-07-29T02:15:21;16.50;99.90
20594;DHT22;10455;48.732;10.266;2023-07-29T02:20:23;16.60;99.90
20594;DHT22;10455;48.732;10.266;2023-07-29T02:25:26;16.60;99.90
20594;DHT22;10455;48.732;10.266;2023-07-29T02:30:28;16.50;99.90
20594;DHT22;10455;48.732;10.266;2023-07-29T02:35:29;16.40;99.90
20594;DHT22;10455;48.732;10.266;2023-07-29T02:40:33;16.40;99.90
20594;DHT22;10455;48.732;10.266;2023-07-29T02:45:34;16.40;99.90
20594;DHT22;10455;48.732;10.266;2023-07-29T02:50:36;16.40;99.90
20594;DHT22;10455;48.732;10.266;2023-07-29T02:55:41;16.40;99.90
20594;DHT22;10455;48.732;10.266;2023-07-29T03:00:43;16.50;99.90
20594;DHT22;10455;48.732;10.266;2023-07-29T03:05:44;16.30;99.90
20594;DHT22;10455;48.732;10.266;2023-07-29T03:10:48;16.30;99.90
20594;DHT22;10455;48.732;10.266;2023-07-29T03:15:50;16.20;99.90
20594;DHT22;10455;48.732;10.266;2023-07-29T03:20:51;16.00;99.90
20594;DHT22;10455;48.732;10.266;2023-07-29T03:25:56;16.10;99.90
20594;DHT22;10455;48.732;10.266;2023-07-29T03:30:59;16.10;99.90
20594;DHT22;10455;48.732;10.266;2023-07-29T03:36:01;16.10;99.90
20594;DHT22;10455;48.732;10.266;2023-07-29T03:41:04;16.20;99.90
20594;DHT22;10455;48.732;10.266;2023-07-29T03:46:06;16.20;99.90
20594;DHT22;10455;48.732;10.266;2023-07-29T03:51:08;16.20;99.90
20594;DHT22;10455;48.732;10.266;2023-07-29T03:56:11;16.10;99.90
20594;DHT22;10455;48.732;10.266;2023-07-29T04:01:13;16.20;99.90
20594;DHT22;10455;48.732;10.266;2023-07-29T04:06:15;16.20;99.90
20594;DHT22;10455;48.732;10.266;2023-07-29T04:11:18;16.30;99.90
20594;DHT22;10455;48.732;10.266;2023-07-29T04:16:20;16.40;99.90
20594;DHT22;10455;48.732;10.266;2023-07-29T04:21:22;16.70;99.90
20594;DHT22;10455;48.732;10.266;2023-07-29T04:26:25;16.80;99.90
20594;DHT22;10455;48.732;10.266;2023-07-29T04:31:27;16.90;99.90
20594;DHT22;10455;48.732;10.266;2023-07-29T04:36:29;16.90;99.90
20594;DHT22;10455;48.732;10.266;2023-07-29T04:41:32;16.90;99.90
20594;DHT22;10455;48.732;10.266;2023-07-29T04:46:35;16.90;99.90
20594;DHT22;10455;48.732;10.266;2023-07-29T04:51:37;16.90;99.90
20594;DHT22;10455;48.732;10.266;2023-07-29T04:56:40;16.90;99.90
20594;DHT22;10455;48.732;10.266;2023-07-29T05:01:42;16.90;99.90
20594;DHT22;10455;48.732;10.266;2023-07-29T05:06:44;16.80;99.90
20594;DHT22;10455;48.732;10.266;2023-07-29T05:11:47;16.80;99.90
20594;DHT22;10455;48.732;10.266;2023-07-29T05:16:49;16.90;99.90
20594;DHT22;10455;48.732;10.266;2023-07-29T05:21:51;16.70;99.90
20594;DHT22;10455;48.732;10.266;2023-07-29T05:26:54;16.70;99.90
20594;DHT22;10455;48.732;10.266;2023-07-29T05:31:56;16.90;99.90
20594;DHT22;10455;48.732;10.266;2023-07-29T05:36:58;16.90;99.90
20594;DHT22;10455;48.732;10.266;2023-07-29T05:42:02;17.00;99.90
20594;DHT22;10455;48.732;10.266;2023-07-29T05:47:04;17.30;99.90
20594;DHT22;10455;48.732;10.266;2023-07-29T05:52:07;17.40;99.90
20594;DHT22;10455;48.732;10.266;2023-07-29T05:57:10;17.30;99.90
20594;DHT22;10455;48.732;10.266;2023-07-29T06:02:12;17.30;99.90
20594;DHT22;10455;48.732;10.266;2023-07-29T06:07:14;17.40;99.90
20594;DHT22;10455;48.732;10.266;2023-07-29T06:12:17;17.50;99.90
20594;DHT22;10455;48.732;10.266;2023-07-29T06:17:20;17.40;99.90
20594;DHT22;10455;48.732;10.266;2023-07-29T06:22:22;17.50;99.90
20594;DHT22;10455;48.732;10.266;2023-07-29T06:27:25;17.50;99.90
20594;DHT22;10455;48.732;10.266;2023-07-29T06:32:27;17.60;99.90
20594;DHT22;10455;48.732;10.266;2023-07-29T06:37:28;17.10;99.90
20594;DHT22;10455;48.732;10.266;2023-07-29T06:42:32;16.70;99.90
20594;DHT22;10455;48.732;10.266;2023-07-29T06:47:33;16.60;99.90
20594;DHT22;10455;48.732;10.266;2023-07-29T06:52:35;16.80;99.90
20594;DHT22;10455;48.732;10.266;2023-07-29T06:57:40;17.00;99.90
20594;DHT22;10455;48.732;10.266;2023-07-29T07:02:42;17.40;99.90
20594;DHT22;10455;48.732;10.266;2023-07-29T07:07:44;18.10;99.90
20594;DHT22;10455;48.732;10.266;2023-07-29T07:12:47;18.60;99.90
20594;DHT22;10455;48.732;10.266;2023-07-29T07:17:49;19.00;99.90
20594;DHT22;10455;48.732;10.266;2023-07-29T07:22:52;19.50;99.90
20594;DHT22;10455;48.732;10.266;2023-07-29T07:27:55;19.90;99.90
20594;DHT22;10455;48.732;10.266;2023-07-29T07:32:57;20.00;99.90
20594;DHT22;10455;48.732;10.266;2023-07-29T07:37:59;20.50;99.90
20594;DHT22;10455;48.732;10.266;2023-07-29T07:43:04;20.70;99.90
20594;DHT22;10455;48.732;10.266;2023-07-29T07:48:06;21.90;99.90
20594;DHT22;10455;48.732;10.266;2023-07-29T07:53:10;22.00;99.90
20594;DHT22;10455;48.732;10.266;2023-07-29T07:58:14;21.40;99.90
20594;DHT22;10455;48.732;10.266;2023-07-29T08:03:17;20.80;99.90
20594;DHT22;10455;48.732;10.266;2023-07-29T08:08:19;20.20;99.90
20594;DHT22;10455;48.732;10.266;2023-07-29T08:13:22;19.90;99.90
20594;DHT22;10455;48.732;10.266;2023-07-29T08:18:24;19.40;99.90
20594;DHT22;10455;48.732;10.266;2023-07-29T08:23:26;18.70;99.90
20594;DHT22;10455;48.732;10.266;2023-07-29T08:28:31;18.30;99.90
20594;DHT22;10455;48.732;10.266;2023-07-29T08:33:33;18.20;99.90
20594;DHT22;10455;48.732;10.266;2023-07-29T08:38:35;17.90;99.90
20594;DHT22;10455;48.732;10.266;2023-07-29T08:43:39;17.90;99.90
20594;DHT22;10455;48.732;10.266;2023-07-29T08:48:46;18.80;99.90
20594;DHT22;10455;48.732;10.266;2023-07-29T08:53:48;19.80;99.90
20594;DHT22;10455;48.732;10.266;2023-07-29T08:58:52;20.60;99.90
20594;DHT22;10455;48.732;10.266;2023-07-29T09:03:54;21.60;99.90
20594;DHT22;10455;48.732;10.266;2023-07-29T09:08:56;21.80;99.90
20594;DHT22;10455;48.732;10.266;2023-07-29T09:13:59;21.10;99.90
20594;DHT22;10455;48.732;10.266;2023-07-29T09:19:02;21.60;99.90
20594;DHT22;10455;48.732;10.266;2023-07-29T09:24:04;23.20;99.90
20594;DHT22;10455;48.732;10.266;2023-07-29T09:29:09;22.10;99.90
20594;DHT22;10455;48.732;10.266;2023-07-29T09:34:15;21.20;99.90
20594;DHT22;10455;48.732;10.266;2023-07-29T09:39:17;24.00;99.90
20594;DHT22;10455;48.732;10.266;2023-07-29T09:44:21;23.80;99.90
20594;DHT22;10455;48.732;10.266;2023-07-29T09:49:22;21.60;99.90
20594;DHT22;10455;48.732;10.266;2023-07-29T09:54:25;21.00;99.90
20594;DHT22;10455;48.732;10.266;2023-07-29T09:59:28;20.80;99.90
20594;DHT22;10455;48.732;10.266;2023-07-29T10:04:35;20.50;99.90
20594;DHT22;10455;48.732;10.266;2023-07-29T10:09:38;20.90;99.90
20594;DHT22;10455;48.732;10.266;2023-07-29T10:14:44;21.70;99.90
20594;DHT22;10455;48.732;10.266;2023-07-29T10:19:48;23.00;99.90
20594;DHT22;10455;48.732;10.266;2023-07-29T10:24:51;24.90;99.90
20594;DHT22;10455;48.732;10.266;2023-07-29T10:29:57;24.80;99.90
20594;DHT22;10455;48.732;10.266;2023-07-29T10:34:59;24.80;99.90
20594;DHT22;10455;48.732;10.266;2023-07-29T10:40:06;26.80;99.90
20594;DHT22;10455;48.732;10.266;2023-07-29T10:45:21;28.50;99.90
20594;DHT22;10455;48.732;10.266;2023-07-29T10:50:23;28.80;99.90
20594;DHT22;10455;48.732;10.266;2023-07-29T10:55:29;28.80;99.90
20594;DHT22;10455;48.732;10.266;2023-07-29T11:00:33;29.00;99.90
20594;DHT22;10455;48.732;10.266;2023-07-29T11:05:45;29.70;99.90
20594;DHT22;10455;48.732;10.266;2023-07-29T11:11:00;29.90;99.90
20594;DHT22;10455;48.732;10.266;2023-07-29T11:16:04;29.40;99.90
20594;DHT22;10455;48.732;10.266;2023-07-29T11:21:06;29.00;99.90
20594;DHT22;10455;48.732;10.266;2023-07-29T11:26:08;30.30;99.90
20594;DHT22;10455;48.732;10.266;2023-07-29T11:31:12;30.80;99.90
20594;DHT22;10455;48.732;10.266;2023-07-29T11:36:18;32.30;99.90
20594;DHT22;10455;48.732;10.266;2023-07-29T11:41:20;32.50;99.90
20594;DHT22;10455;48.732;10.266;2023-07-29T11:46:25;32.10;99.90
20594;DHT22;10455;48.732;10.266;2023-07-29T11:51:26;32.60;99.90
20594;DHT22;10455;48.732;10.266;2023-07-29T11:56:29;29.70;99.90
20594;DHT22;10455;48.732;10.266;2023-07-29T12:01:33;24.80;99.90
20594;DHT22;10455;48.732;10.266;2023-07-29T12:06:35;20.60;99.90
20594;DHT22;10455;48.732;10.266;2023-07-29T12:11:37;20.00;99.90
20594;DHT22;10455;48.732;10.266;2023-07-29T12:16:43;20.30;99.90
20594;DHT22;10455;48.732;10.266;2023-07-29T12:21:45;21.30;99.90
20594;DHT22;10455;48.732;10.266;2023-07-29T12:26:47;22.50;99.90
20594;DHT22;10455;48.732;10.266;2023-07-29T12:31:58;24.40;99.90
20594;DHT22;10455;48.732;10.266;2023-07-29T12:37:03;24.70;99.90
20594;DHT22;10455;48.732;10.266;2023-07-29T12:42:06;26.50;99.90
20594;DHT22;10455;48.732;10.266;2023-07-29T12:47:09;27.30;99.90
20594;DHT22;10455;48.732;10.266;2023-07-29T12:52:12;28.10;99.90
20594;DHT22;10455;48.732;10.266;2023-07-29T12:57:14;27.50;99.90
20594;DHT22;10455;48.732;10.266;2023-07-29T13:02:17;28.00;99.90
20594;DHT22;10455;48.732;10.266;2023-07-29T13:07:20;28.70;99.90
20594;DHT22;10455;48.732;10.266;2023-07-29T13:12:22;28.60;99.90
20594;DHT22;10455;48.732;10.266;2023-07-29T13:17:25;28.50;99.90
20594;DHT22;10455;48.732;10.266;2023-07-29T13:22:27;28.70;99.90
20594;DHT22;10455;48.732;10.266;2023-07-29T13:27:29;28.80;99.90
20594;DHT22;10455;48.732;10.266;2023-07-29T13:32:32;28.20;99.90
20594;DHT22;10455;48.732;10.266;2023-07-29T13:37:34;28.80;99.90
20594;DHT22;10455;48.732;10.266;2023-07-29T13:42:36;30.10;99.90
20594;DHT22;10455;48.732;10.266;2023-07-29T13:47:39;30.20;99.90
20594;DHT22;10455;48.732;10.266;2023-07-29T13:52:41;29.30;99.90
20594;DHT22;10455;48.732;10.266;2023-07-29T13:57:43;27.90;99.90
20594;DHT22;10455;48.732;10.266;2023-07-29T14:02:46;25.20;99.90
20594;DHT22;10455;48.732;10.266;2023-07-29T14:07:48;24.70;99.90
20594;DHT22;10455;48.732;10.266;2023-07-29T14:12:50;25.50;99.90
20594;DHT22;10455;48.732;10.266;2023-07-29T14:17:53;25.80;99.90
20594;DHT22;10455;48.732;10.266;2023-07-29T14:22:55;26.30;99.90
20594;DHT22;10455;48.732;10.266;2023-07-29T14:27:57;27.10;99.90
20594;DHT22;10455;48.732;10.266;2023-07-29T14:33:00;28.20;99.90
20594;DHT22;10455;48.732;10.266;2023-07-29T14:38:02;28.50;99.90
20594;DHT22;10455;48.732;10.266;2023-07-29T14:43:04;28.10;99.90
20594;DHT22;10455;48.732;10.266;2023-07-29T14:48:07;28.20;99.90
20594;DHT22;10455;48.732;10.266;2023-07-29T14:53:09;29.10;99.90
20594;DHT22;10455;48.732;10.266;2023-07-29T14:58:11;30.60;99.90
20594;DHT22;10455;48.732;10.266;2023-07-29T15:03:14;31.60;99.90
20594;DHT22;10455;48.732;10.266;2023-07-29T15:08:16;32.20;99.90
20594;DHT22;10455;48.732;10.266;2023-07-29T15:13:19;30.30;99.90
20594;DHT22;10455;48.732;10.266;2023-07-29T15:18:22;29.80;99.90
20594;DHT22;10455;48.732;10.266;2023-07-29T15:23:24;29.00;99.90
20594;DHT22;10455;48.732;10.266;2023-07-29T15:28:26;28.50;99.90
20594;DHT22;10455;48.732;10.266;2023-07-29T15:33:30;28.80;99.90
20594;DHT22;10455;48.732;10.266;2023-07-29T15:38:34;27.90;99.90
20594;DHT22;10455;48.732;10.266;2023-07-29T15:43:37;27.90;99.90
20594;DHT22;10455;48.732;10.266;2023-07-29T15:48:40;28.30;99.90
20594;DHT22;10455;48.732;10.266;2023-07-29T15:53:42;30.40;99.90
20594;DHT22;10455;48.732;10.266;2023-07-29T15:58:44;31.00;99.90
20594;DHT22;10455;48.732;10.266;2023-07-29T16:03:47;30.50;99.90
20594;DHT22;10455;48.732;10.266;2023-07-29T16:08:49;29.00;99.90
20594;DHT22;10455;48.732;10.266;2023-07-29T16:13:51;28.40;99.90
20594;DHT22;10455;48.732;10.266;2023-07-29T16:18:54;27.50;99.90
20594;DHT22;10455;48.732;10.266;2023-07-29T16:23:56;27.10;99.90
20594;DHT22;10455;48.732;10.266;2023-07-29T16:28:58;27.30;99.90
20594;DHT22;10455;48.732;10.266;2023-07-29T16:34:01;27.40;99.90
20594;DHT22;10455;48.732;10.266;2023-07-29T16:39:03;26.90;99.90
20594;DHT22;10455;48.732;10.266;2023-07-29T16:44:05;26.80;99.90
20594;DHT22;10455;48.732;10.266;2023-07-29T16:49:12;27.00;99.90
20594;DHT22;10455;48.732;10.266;2023-07-29T16:54:14;26.70;99.90
20594;DHT22;10455;48.732;10.266;2023-07-29T16:59:18;26.80;99.90
20594;DHT22;10455;48.732;10.266;2023-07-29T17:04:23;26.60;99.90
20594;DHT22;10455;48.732;10.266;2023-07-29T17:09:25;26.00;99.90
20594;DHT22;10455;48.732;10.266;2023-07-29T17:14:27;25.70;99.90
20594;DHT22;10455;48.732;10.266;2023-07-29T17:19:30;25.50;99.90
20594;DHT22;10455;48.732;10.266;2023-07-29T17:24:33;25.00;99.90
20594;DHT22;10455;48.732;10.266;2023-07-29T17:29:34;24.40;99.90
20594;DHT22;10455;48.732;10.266;2023-07-29T17:34:38;23.90;99.90
20594;DHT22;10455;48.732;10.266;2023-07-29T17:39:40;23.70;99.90
20594;DHT22;10455;48.732;10.266;2023-07-29T17:44:42;23.50;99.90
20594;DHT22;10455;48.732;10.266;2023-07-29T17:49:46;23.10;99.90
20594;DHT22;10455;48.732;10.266;2023-07-29T17:54:48;22.80;99.90
20594;DHT22;10455;48.732;10.266;2023-07-29T17:59:49;22.60;99.90
20594;DHT22;10455;48.732;10.266;2023-07-29T18:04:54;22.40;99.90
20594;DHT22;10455;48.732;10.266;2023-07-29T18:09:56;22.20;99.90
20594;DHT22;10455;48.732;10.266;2023-07-29T18:14:58;21.80;99.90
20594;DHT22;10455;48.732;10.266;2023-07-29T18:20:02;21.60;99.90
20594;DHT22;10455;48.732;10.266;2023-07-29T18:25:05;21.30;99.90
20594;DHT22;10455;48.732;10.266;2023-07-29T18:30:07;21.00;99.90
20594;DHT22;10455;48.732;10.266;2023-07-29T18:35:11;20.80;99.90
20594;DHT22;10455;48.732;10.266;2023-07-29T18:40:17;20.50;99.90
20594;DHT22;10455;48.732;10.266;2023-07-29T18:45:19;19.70;99.90
20594;DHT22;10455;48.732;10.266;2023-07-29T18:50:22;19.00;99.90
20594;DHT22;10455;48.732;10.266;2023-07-29T18:55:24;18.60;99.90
20594;DHT22;10455;48.732;10.266;2023-07-29T19:00:30;18.50;99.90
20594;DHT22;10455;48.732;10.266;2023-07-29T19:05:35;18.60;99.90
20594;DHT22;10455;48.732;10.266;2023-07-29T19:10:37;18.50;99.90
20594;DHT22;10455;48.732;10.266;2023-07-29T19:15:39;18.50;99.90
20594;DHT22;10455;48.732;10.266;2023-07-29T19:20:42;18.70;99.90
20594;DHT22;10455;48.732;10.266;2023-07-29T19:25:45;18.60;99.90
20594;DHT22;10455;48.732;10.266;2023-07-29T19:30:47;18.50;99.90
20594;DHT22;10455;48.732;10.266;2023-07-29T19:35:56;18.40;99.90
20594;DHT22;10455;48.732;10.266;2023-07-29T19:40:59;18.40;99.90
20594;DHT22;10455;48.732;10.266;2023-07-29T19:46:01;18.30;99.90
20594;DHT22;10455;48.732;10.266;2023-07-29T19:51:06;18.10;99.90
20594;DHT22;10455;48.732;10.266;2023-07-29T19:56:07;18.00;99.90
20594;DHT22;10455;48.732;10.266;2023-07-29T20:01:10;17.80;99.90
20594;DHT22;10455;48.732;10.266;2023-07-29T20:06:17;17.80;99.90
20594;DHT22;10455;48.732;10.266;2023-07-29T20:11:19;17.70;99.90
20594;DHT22;10455;48.732;10.266;2023-07-29T20:16:21;17.70;99.90
20594;DHT22;10455;48.732;10.266;2023-07-29T20:21:25;17.80;99.90
20594;DHT22;10455;48.732;10.266;2023-07-29T20:26:27;17.60;99.90
20594;DHT22;10455;48.732;10.266;2023-07-29T20:31:32;17.50;99.90
20594;DHT22;10455;48.732;10.266;2023-07-29T20:36:35;17.40;99.90
20594;DHT22;10455;48.732;10.266;2023-07-29T20:41:37;17.40;99.90
20594;DHT22;10455;48.732;10.266;2023-07-29T20:46:39;17.50;99.90
20594;DHT22;10455;48.732;10.266;2023-07-29T20:51:43;17.50;99.90
20594;DHT22;10455;48.732;10.266;2023-07-29T20:56:45;17.50;99.90
20594;DHT22;10455;48.732;10.266;2023-07-29T21:01:46;17.40;99.90
20594;DHT22;10455;48.732;10.266;2023-07-29T21:06:50;17.50;99.90
20594;DHT22;10455;48.732;10.266;2023-07-29T21:11:52;17.60;99.90
20594;DHT22;10455;48.732;10.266;2023-07-29T21:16:55;17.70;99.90
20594;DHT22;10455;48.732;10.266;2023-07-29T21:21:59;17.70;99.90
20594;DHT22;10455;48.732;10.266;2023-07-29T21:27:00;17.50;99.90
20594;DHT22;10455;48.732;10.266;2023-07-29T21:32:03;17.50;99.90
20594;DHT22;10455;48.732;10.266;2023-07-29T21:37:08;17.50;99.90
20594;DHT22;10455;48.732;10.266;2023-07-29T21:42:10;17.50;99.90
20594;DHT22;10455;48.732;10.266;2023-07-29T21:47:17;17.50;99.90
20594;DHT22;10455;48.732;10.266;2023-07-29T21:52:20;17.30;99.90
20594;DHT22;10455;48.732;10.266;2023-07-29T21:57:22;17.30;99.90
20594;DHT22;10455;48.732;10.266;2023-07-29T22:02:24;17.20;99.90
20594;DHT22;10455;48.732;10.266;2023-07-29T22:07:27;17.20;99.90
20594;DHT22;10455;48.732;10.266;2023-07-29T22:12:29;17.20;99.90
20594;DHT22;10455;48.732;10.266;2023-07-29T22:17:31;17.30;99.90
20594;DHT22;10455;48.732;10.266;2023-07-29T22:22:35;17.40;99.90
20594;DHT22;10455;48.732;10.266;2023-07-29T22:27:37;17.40;99.90
20594;DHT22;10455;48.732;10.266;2023-07-29T22:32:38;17.40;99.90
20594;DHT22;10455;48.732;10.266;2023-07-29T22:37:42;17.50;99.90
20594;DHT22;10455;48.732;10.266;2023-07-29T22:42:44;17.50;99.90
20594;DHT22;10455;48.732;10.266;2023-07-29T22:47:46;17.60;99.90
20594;DHT22;10455;48.732;10.266;2023-07-29T22:52:49;17.60;99.90
20594;DHT22;10455;48.732;10.266;2023-07-29T22:57:51;17.60;99.90
20594;DHT22;10455;48.732;10.266;2023-07-29T23:02:53;17.60;99.90
20594;DHT22;10455;48.732;10.266;2023-07-29T23:07:56;17.60;99.90
20594;DHT22;10455;48.732;10.266;2023-07-29T23:12:58;17.70;99.90
20594;DHT22;10455;48.732;10.266;2023-07-29T23:18:01;17.70;99.90
20594;DHT22;10455;48.732;10.266;2023-07-29T23:23:04;17.70;99.90
20594;DHT22;10455;48.732;10.266;2023-07-29T23:28:06;17.70;99.90
20594;DHT22;10455;48.732;10.266;2023-07-29T23:33:08;17.60;99.90
20594;DHT22;10455;48.732;10.266;2023-07-29T23:38:11;17.70;99.90
20594;DHT22;10455;48.732;10.266;2023-07-29T23:43:13;17.80;99.90
20594;DHT22;10455;48.732;10.266;2023-07-29T23:48:15;17.80;99.90
20594;DHT22;10455;48.732;10.266;2023-07-29T23:53:18;17.80;99.90
20594;DHT22;10455;48.732;10.266;2023-07-29T23:58:20;17.70;99.90
